logo dgac
Domingo 16 de Diciembre del 2018
Buscar por aerodromo o helipuerto
Ingrese nombre de aeródromo, localidad o designador OACI:
TAF: TAF SCRD 161603Z 1618/1706 33008KT CAVOK TX24/1619Z TN12/1706Z
TAF del 16/12/2018 a las 16:03 UTC
Período de validez: desde el 16 a las 18:00 UTC hasta el 17 a las 06:00 UTC
Viento: dirección 330 grados, velocidad 8 nudos
Visibilidad: 10 km o más,
    sin nubes bajo los 5.000 pies o bajo del MSA (Mínimo de Seguridad del Aeródromo),
    sin cumulonimbus, y sin fenómenos de tiempo significativo en el aeródromo o alrededores
Temperatura máxima: 24ºC el 16 a las 19:00 UTC
Temperatura mínima: 12ºC el 17 a las 06:00 UTC